This is the latest recevied weather packets stored in our database for station/object IW1EYZ-3. If no packets are shown the sender has not sent any weather packets the latest 10 day(s).
| Time | Temp. | Humidity | Pressure | Rain* | Wind** | Luminosity | Snow |
|---|---|---|---|---|---|---|---|
| 1777758836 | 17.22° C | 33% | 1022.8 hPa | - | - | - | - |
| 1777757635 | 17.78° C | 33% | 1022.9 hPa | - | - | - | - |
| 1777756435 | 17.78° C | 32% | 1022.9 hPa | - | - | - | - |
| 1777755235 | 18.33° C | 32% | 1022.9 hPa | - | - | - | - |
| 1777754034 | 18.33° C | 32% | 1022.9 hPa | - | - | - | - |
| 1777752834 | 18.33° C | 30% | 1023.1 hPa | - | - | - | - |
| 1777751634 | 18.89° C | 30% | 1022.9 hPa | - | - | - | - |
| 1777750433 | 18.89° C | 30% | 1022.6 hPa | - | - | - | - |
| 1777749233 | 18.89° C | 30% | 1022.6 hPa | - | - | - | - |
| 1777748033 | 19.44° C | 30% | 1022.5 hPa | - | - | - | - |
| 1777746832 | 19.44° C | 30% | 1022.4 hPa | - | - | - | - |
| 1777745632 | 19.44° C | 35% | 1022.5 hPa | - | - | - | - |
| 1777744432 | 20.56° C | 33% | 1022.6 hPa | - | - | - | - |
| 1777743231 | 20.56° C | 37% | 1022.6 hPa | - | - | - | - |
| 1777742031 | 21.11° C | 34% | 1022.5 hPa | - | - | - | - |
| 1777740831 | 21.67° C | 37% | 1022.6 hPa | - | - | - | - |
| 1777739631 | 24.44° C | 27% | 1022.5 hPa | - | - | - | - |
| 1777738430 | 31.11° C | 20% | 1022.6 hPa | - | - | - | - |
| 1777737230 | 30.56° C | 21% | 1022.9 hPa | - | - | - | - |
| 1777736029 | 31.67° C | 20% | 1023.1 hPa | - | - | - | - |
| 1777734829 | 29.44° C | 23% | 1023.3 hPa | - | - | - | - |
| 1777733629 | 31.11° C | 21% | 1023.5 hPa | - | - | - | - |
| 1777732429 | 30.56° C | 20% | 1023.7 hPa | - | - | - | - |
| 1777731228 | 30° C | 19% | 1023.9 hPa | - | - | - | - |
| 1777730028 | 29.44° C | 21% | 1024.2 hPa | - | - | - | - |
* Rain since midnight (hover to see other rain measurements)
** Current wind speed in m/s (hover to see current wind gust speed)